sensor_id;sensor_type;location;lat;lon;timestamp;temperature;humidity
4874;DHT22;2451;49.970;9.068;2022-08-14T00:00:00;23.40;99.90
4874;DHT22;2451;49.970;9.068;2022-08-14T00:02:26;23.40;99.90
4874;DHT22;2451;49.970;9.068;2022-08-14T00:04:51;23.40;99.90
4874;DHT22;2451;49.970;9.068;2022-08-14T00:07:17;23.30;99.90
4874;DHT22;2451;49.970;9.068;2022-08-14T00:09:43;23.30;99.90
4874;DHT22;2451;49.970;9.068;2022-08-14T00:12:09;23.30;99.90
4874;DHT22;2451;49.970;9.068;2022-08-14T00:14:35;23.30;99.90
4874;DHT22;2451;49.970;9.068;2022-08-14T00:17:01;23.20;99.90
4874;DHT22;2451;49.970;9.068;2022-08-14T00:19:27;23.20;99.90
4874;DHT22;2451;49.970;9.068;2022-08-14T00:21:52;23.10;99.90
4874;DHT22;2451;49.970;9.068;2022-08-14T00:24:19;23.10;99.90
4874;DHT22;2451;49.970;9.068;2022-08-14T00:26:45;23.10;99.90
4874;DHT22;2451;49.970;9.068;2022-08-14T00:29:11;23.10;99.90
4874;DHT22;2451;49.970;9.068;2022-08-14T00:31:36;23.00;99.90
4874;DHT22;2451;49.970;9.068;2022-08-14T00:34:02;23.00;99.90
4874;DHT22;2451;49.970;9.068;2022-08-14T00:36:28;22.90;99.90
4874;DHT22;2451;49.970;9.068;2022-08-14T00:38:54;22.90;99.90
4874;DHT22;2451;49.970;9.068;2022-08-14T00:41:20;22.90;99.90
4874;DHT22;2451;49.970;9.068;2022-08-14T00:43:45;22.90;99.90
4874;DHT22;2451;49.970;9.068;2022-08-14T00:46:12;22.80;99.90
4874;DHT22;2451;49.970;9.068;2022-08-14T00:48:38;22.80;99.90
4874;DHT22;2451;49.970;9.068;2022-08-14T00:51:08;22.80;99.90
4874;DHT22;2451;49.970;9.068;2022-08-14T00:53:36;22.70;99.90
4874;DHT22;2451;49.970;9.068;2022-08-14T00:56:05;22.60;99.90
4874;DHT22;2451;49.970;9.068;2022-08-14T00:58:32;22.50;99.90
4874;DHT22;2451;49.970;9.068;2022-08-14T01:01:05;22.50;99.90
4874;DHT22;2451;49.970;9.068;2022-08-14T01:03:32;22.50;99.90
4874;DHT22;2451;49.970;9.068;2022-08-14T01:06:05;22.40;99.90
4874;DHT22;2451;49.970;9.068;2022-08-14T01:08:31;22.40;99.90
4874;DHT22;2451;49.970;9.068;2022-08-14T01:10:57;22.40;99.90
4874;DHT22;2451;49.970;9.068;2022-08-14T01:13:30;22.30;99.90
4874;DHT22;2451;49.970;9.068;2022-08-14T01:15:59;22.30;99.90
4874;DHT22;2451;49.970;9.068;2022-08-14T01:18:26;22.20;99.90
4874;DHT22;2451;49.970;9.068;2022-08-14T01:21:11;22.20;99.90
4874;DHT22;2451;49.970;9.068;2022-08-14T01:23:46;22.20;99.90
4874;DHT22;2451;49.970;9.068;2022-08-14T01:26:13;22.20;99.90
4874;DHT22;2451;49.970;9.068;2022-08-14T01:28:40;22.10;99.90
4874;DHT22;2451;49.970;9.068;2022-08-14T01:33:35;22.10;99.90
4874;DHT22;2451;49.970;9.068;2022-08-14T01:36:05;22.00;99.90
4874;DHT22;2451;49.970;9.068;2022-08-14T01:38:31;22.00;99.90
4874;DHT22;2451;49.970;9.068;2022-08-14T01:41:04;22.00;99.90
4874;DHT22;2451;49.970;9.068;2022-08-14T01:43:31;21.90;99.90
4874;DHT22;2451;49.970;9.068;2022-08-14T01:46:03;21.90;99.90
4874;DHT22;2451;49.970;9.068;2022-08-14T01:48:35;21.90;99.90
4874;DHT22;2451;49.970;9.068;2022-08-14T01:51:01;21.90;99.90
4874;DHT22;2451;49.970;9.068;2022-08-14T01:53:27;21.80;99.90
4874;DHT22;2451;49.970;9.068;2022-08-14T01:56:03;21.80;99.90
4874;DHT22;2451;49.970;9.068;2022-08-14T01:58:30;21.80;99.90
4874;DHT22;2451;49.970;9.068;2022-08-14T02:00:56;21.70;99.90
4874;DHT22;2451;49.970;9.068;2022-08-14T02:03:27;21.60;99.90
4874;DHT22;2451;49.970;9.068;2022-08-14T02:05:58;21.60;99.90
4874;DHT22;2451;49.970;9.068;2022-08-14T02:08:27;21.60;99.90
4874;DHT22;2451;49.970;9.068;2022-08-14T02:10:58;21.50;99.90
4874;DHT22;2451;49.970;9.068;2022-08-14T02:13:45;21.50;99.90
4874;DHT22;2451;49.970;9.068;2022-08-14T02:16:13;21.40;99.90
4874;DHT22;2451;49.970;9.068;2022-08-14T02:18:41;21.40;99.90
4874;DHT22;2451;49.970;9.068;2022-08-14T02:21:07;21.30;99.90
4874;DHT22;2451;49.970;9.068;2022-08-14T02:23:33;21.30;99.90
4874;DHT22;2451;49.970;9.068;2022-08-14T02:26:00;21.30;99.90
4874;DHT22;2451;49.970;9.068;2022-08-14T02:28:27;21.20;99.90
4874;DHT22;2451;49.970;9.068;2022-08-14T02:30:55;21.20;99.90
4874;DHT22;2451;49.970;9.068;2022-08-14T02:33:21;21.20;99.90
4874;DHT22;2451;49.970;9.068;2022-08-14T02:35:47;21.10;99.90
4874;DHT22;2451;49.970;9.068;2022-08-14T02:38:13;21.10;99.90
4874;DHT22;2451;49.970;9.068;2022-08-14T02:40:39;21.00;99.90
4874;DHT22;2451;49.970;9.068;2022-08-14T02:43:05;21.00;99.90
4874;DHT22;2451;49.970;9.068;2022-08-14T02:45:32;21.00;99.90
4874;DHT22;2451;49.970;9.068;2022-08-14T02:48:02;21.00;99.90
4874;DHT22;2451;49.970;9.068;2022-08-14T02:50:31;21.00;99.90
4874;DHT22;2451;49.970;9.068;2022-08-14T02:52:56;21.00;99.90
4874;DHT22;2451;49.970;9.068;2022-08-14T02:55:22;20.90;99.90
4874;DHT22;2451;49.970;9.068;2022-08-14T02:57:48;20.90;99.90
4874;DHT22;2451;49.970;9.068;2022-08-14T03:00:17;20.90;99.90
4874;DHT22;2451;49.970;9.068;2022-08-14T03:02:43;20.90;99.90
4874;DHT22;2451;49.970;9.068;2022-08-14T03:05:08;20.90;99.90
4874;DHT22;2451;49.970;9.068;2022-08-14T03:07:36;20.90;99.90
4874;DHT22;2451;49.970;9.068;2022-08-14T03:10:02;20.90;99.90
4874;DHT22;2451;49.970;9.068;2022-08-14T03:12:28;20.90;99.90
4874;DHT22;2451;49.970;9.068;2022-08-14T03:14:54;20.90;99.90
4874;DHT22;2451;49.970;9.068;2022-08-14T03:17:19;20.90;99.90
4874;DHT22;2451;49.970;9.068;2022-08-14T03:19:45;21.00;99.90
4874;DHT22;2451;49.970;9.068;2022-08-14T03:22:10;21.00;99.90
4874;DHT22;2451;49.970;9.068;2022-08-14T03:24:36;21.00;99.90
4874;DHT22;2451;49.970;9.068;2022-08-14T03:27:02;21.00;99.90
4874;DHT22;2451;49.970;9.068;2022-08-14T03:29:28;21.00;99.90
4874;DHT22;2451;49.970;9.068;2022-08-14T03:31:54;21.00;99.90
4874;DHT22;2451;49.970;9.068;2022-08-14T03:34:20;21.00;99.90
4874;DHT22;2451;49.970;9.068;2022-08-14T03:36:50;21.00;99.90
4874;DHT22;2451;49.970;9.068;2022-08-14T03:39:21;21.00;99.90
4874;DHT22;2451;49.970;9.068;2022-08-14T03:41:48;20.90;99.90
4874;DHT22;2451;49.970;9.068;2022-08-14T03:44:13;20.90;99.90
4874;DHT22;2451;49.970;9.068;2022-08-14T03:46:39;20.90;99.90
4874;DHT22;2451;49.970;9.068;2022-08-14T03:49:14;20.90;99.90
4874;DHT22;2451;49.970;9.068;2022-08-14T03:51:44;20.80;99.90
4874;DHT22;2451;49.970;9.068;2022-08-14T03:54:10;20.70;99.90
4874;DHT22;2451;49.970;9.068;2022-08-14T03:56:36;20.60;99.90
4874;DHT22;2451;49.970;9.068;2022-08-14T03:59:04;20.60;99.90
4874;DHT22;2451;49.970;9.068;2022-08-14T04:01:39;20.50;99.90
4874;DHT22;2451;49.970;9.068;2022-08-14T04:04:06;20.50;99.90
4874;DHT22;2451;49.970;9.068;2022-08-14T04:06:36;20.50;99.90
4874;DHT22;2451;49.970;9.068;2022-08-14T04:09:05;20.50;99.90
4874;DHT22;2451;49.970;9.068;2022-08-14T04:11:31;20.50;99.90
4874;DHT22;2451;49.970;9.068;2022-08-14T04:13:57;20.60;99.90
4874;DHT22;2451;49.970;9.068;2022-08-14T04:16:22;20.60;99.90
4874;DHT22;2451;49.970;9.068;2022-08-14T04:18:50;20.60;99.90
4874;DHT22;2451;49.970;9.068;2022-08-14T04:21:17;20.60;99.90
4874;DHT22;2451;49.970;9.068;2022-08-14T04:23:45;20.60;99.90
4874;DHT22;2451;49.970;9.068;2022-08-14T04:26:13;20.60;99.90
4874;DHT22;2451;49.970;9.068;2022-08-14T04:28:40;20.60;99.90
4874;DHT22;2451;49.970;9.068;2022-08-14T04:31:06;20.50;99.90
4874;DHT22;2451;49.970;9.068;2022-08-14T04:33:33;20.30;99.90
4874;DHT22;2451;49.970;9.068;2022-08-14T04:35:58;20.20;99.90
4874;DHT22;2451;49.970;9.068;2022-08-14T04:38:24;20.20;99.90
4874;DHT22;2451;49.970;9.068;2022-08-14T04:41:09;20.10;99.90
4874;DHT22;2451;49.970;9.068;2022-08-14T04:43:54;20.00;99.90
4874;DHT22;2451;49.970;9.068;2022-08-14T04:46:21;19.90;99.90
4874;DHT22;2451;49.970;9.068;2022-08-14T04:48:47;19.90;99.90
4874;DHT22;2451;49.970;9.068;2022-08-14T04:51:14;19.90;99.90
4874;DHT22;2451;49.970;9.068;2022-08-14T04:53:42;19.90;99.90
4874;DHT22;2451;49.970;9.068;2022-08-14T04:56:11;19.90;99.90
4874;DHT22;2451;49.970;9.068;2022-08-14T04:58:37;19.90;99.90
4874;DHT22;2451;49.970;9.068;2022-08-14T05:01:04;20.00;99.90
4874;DHT22;2451;49.970;9.068;2022-08-14T05:03:33;20.10;99.90
4874;DHT22;2451;49.970;9.068;2022-08-14T05:06:02;20.20;99.90
4874;DHT22;2451;49.970;9.068;2022-08-14T05:08:28;20.20;99.90
4874;DHT22;2451;49.970;9.068;2022-08-14T05:10:56;20.30;99.90
4874;DHT22;2451;49.970;9.068;2022-08-14T05:13:24;20.40;99.90
4874;DHT22;2451;49.970;9.068;2022-08-14T05:15:52;20.50;99.90
4874;DHT22;2451;49.970;9.068;2022-08-14T05:18:22;20.60;99.90
4874;DHT22;2451;49.970;9.068;2022-08-14T05:20:50;20.70;99.90
4874;DHT22;2451;49.970;9.068;2022-08-14T05:23:18;20.80;99.90
4874;DHT22;2451;49.970;9.068;2022-08-14T05:25:45;21.00;99.90
4874;DHT22;2451;49.970;9.068;2022-08-14T05:28:18;21.10;99.90
4874;DHT22;2451;49.970;9.068;2022-08-14T05:30:49;21.10;99.90
4874;DHT22;2451;49.970;9.068;2022-08-14T05:33:16;21.20;99.90
4874;DHT22;2451;49.970;9.068;2022-08-14T05:35:43;21.20;99.90
4874;DHT22;2451;49.970;9.068;2022-08-14T05:38:14;21.30;99.90
4874;DHT22;2451;49.970;9.068;2022-08-14T05:40:42;21.40;99.90
4874;DHT22;2451;49.970;9.068;2022-08-14T05:43:08;21.50;99.90
4874;DHT22;2451;49.970;9.068;2022-08-14T05:45:33;21.60;99.90
4874;DHT22;2451;49.970;9.068;2022-08-14T05:48:03;21.60;99.90
4874;DHT22;2451;49.970;9.068;2022-08-14T05:50:30;21.70;99.90
4874;DHT22;2451;49.970;9.068;2022-08-14T05:52:56;21.70;99.90
4874;DHT22;2451;49.970;9.068;2022-08-14T05:55:23;21.80;99.90
4874;DHT22;2451;49.970;9.068;2022-08-14T05:57:56;21.90;99.90
4874;DHT22;2451;49.970;9.068;2022-08-14T06:00:25;22.10;99.90
4874;DHT22;2451;49.970;9.068;2022-08-14T06:02:52;22.10;99.90
4874;DHT22;2451;49.970;9.068;2022-08-14T06:05:17;22.20;99.90
4874;DHT22;2451;49.970;9.068;2022-08-14T06:07:43;22.20;99.90
4874;DHT22;2451;49.970;9.068;2022-08-14T06:10:09;22.30;99.90
4874;DHT22;2451;49.970;9.068;2022-08-14T06:12:36;22.30;99.90
4874;DHT22;2451;49.970;9.068;2022-08-14T06:15:02;22.30;99.90
4874;DHT22;2451;49.970;9.068;2022-08-14T06:17:28;22.40;99.90
4874;DHT22;2451;49.970;9.068;2022-08-14T06:19:54;22.50;99.90
4874;DHT22;2451;49.970;9.068;2022-08-14T06:22:19;22.70;99.90
4874;DHT22;2451;49.970;9.068;2022-08-14T06:24:45;22.90;99.90
4874;DHT22;2451;49.970;9.068;2022-08-14T06:27:10;23.00;99.90
4874;DHT22;2451;49.970;9.068;2022-08-14T06:29:37;23.10;99.90
4874;DHT22;2451;49.970;9.068;2022-08-14T06:32:03;23.10;99.90
4874;DHT22;2451;49.970;9.068;2022-08-14T06:34:29;23.30;99.90
4874;DHT22;2451;49.970;9.068;2022-08-14T06:36:55;23.40;99.90
4874;DHT22;2451;49.970;9.068;2022-08-14T06:39:24;23.50;99.90
4874;DHT22;2451;49.970;9.068;2022-08-14T06:41:49;23.60;99.90
4874;DHT22;2451;49.970;9.068;2022-08-14T06:44:15;23.80;99.90
4874;DHT22;2451;49.970;9.068;2022-08-14T06:46:40;23.80;99.90
4874;DHT22;2451;49.970;9.068;2022-08-14T06:49:06;24.00;99.90
4874;DHT22;2451;49.970;9.068;2022-08-14T06:51:32;24.10;99.90
4874;DHT22;2451;49.970;9.068;2022-08-14T06:53:59;24.30;99.90
4874;DHT22;2451;49.970;9.068;2022-08-14T06:56:25;24.40;99.90
4874;DHT22;2451;49.970;9.068;2022-08-14T06:58:51;24.60;99.90
4874;DHT22;2451;49.970;9.068;2022-08-14T07:01:16;24.90;99.90
4874;DHT22;2451;49.970;9.068;2022-08-14T07:04:11;25.00;99.90
4874;DHT22;2451;49.970;9.068;2022-08-14T07:06:55;25.00;99.90
4874;DHT22;2451;49.970;9.068;2022-08-14T07:09:20;25.00;99.90
4874;DHT22;2451;49.970;9.068;2022-08-14T07:11:46;25.00;99.90
4874;DHT22;2451;49.970;9.068;2022-08-14T07:14:12;25.10;99.90
4874;DHT22;2451;49.970;9.068;2022-08-14T07:16:38;25.20;99.90
4874;DHT22;2451;49.970;9.068;2022-08-14T07:19:03;25.30;99.90
4874;DHT22;2451;49.970;9.068;2022-08-14T07:21:30;25.40;99.90
4874;DHT22;2451;49.970;9.068;2022-08-14T07:23:55;25.50;99.90
4874;DHT22;2451;49.970;9.068;2022-08-14T07:26:21;25.60;99.90
4874;DHT22;2451;49.970;9.068;2022-08-14T07:28:46;25.70;99.90
4874;DHT22;2451;49.970;9.068;2022-08-14T07:31:12;25.90;99.90
4874;DHT22;2451;49.970;9.068;2022-08-14T07:33:40;26.00;99.90
4874;DHT22;2451;49.970;9.068;2022-08-14T07:36:08;26.30;99.90
4874;DHT22;2451;49.970;9.068;2022-08-14T07:38:34;26.40;99.90
4874;DHT22;2451;49.970;9.068;2022-08-14T07:41:00;26.50;99.90
4874;DHT22;2451;49.970;9.068;2022-08-14T07:43:26;26.70;99.90
4874;DHT22;2451;49.970;9.068;2022-08-14T07:45:52;26.80;99.90
4874;DHT22;2451;49.970;9.068;2022-08-14T07:48:17;27.20;99.90
4874;DHT22;2451;49.970;9.068;2022-08-14T07:50:44;27.50;99.90
4874;DHT22;2451;49.970;9.068;2022-08-14T07:53:11;27.70;99.90
4874;DHT22;2451;49.970;9.068;2022-08-14T07:55:37;27.90;99.90
4874;DHT22;2451;49.970;9.068;2022-08-14T07:58:02;28.00;99.40
4874;DHT22;2451;49.970;9.068;2022-08-14T08:00:28;28.10;99.30
4874;DHT22;2451;49.970;9.068;2022-08-14T08:02:55;28.20;98.60
4874;DHT22;2451;49.970;9.068;2022-08-14T08:05:22;28.20;98.20
4874;DHT22;2451;49.970;9.068;2022-08-14T08:07:50;28.10;98.30
4874;DHT22;2451;49.970;9.068;2022-08-14T08:10:18;28.20;98.40
4874;DHT22;2451;49.970;9.068;2022-08-14T08:15:29;28.50;97.60
4874;DHT22;2451;49.970;9.068;2022-08-14T08:17:55;28.70;96.70
4874;DHT22;2451;49.970;9.068;2022-08-14T08:20:22;28.80;96.30
4874;DHT22;2451;49.970;9.068;2022-08-14T08:22:49;29.10;95.80
4874;DHT22;2451;49.970;9.068;2022-08-14T08:25:16;29.50;95.40
4874;DHT22;2451;49.970;9.068;2022-08-14T08:28:00;29.80;94.20
4874;DHT22;2451;49.970;9.068;2022-08-14T08:30:28;29.90;94.10
4874;DHT22;2451;49.970;9.068;2022-08-14T08:32:55;29.90;93.20
4874;DHT22;2451;49.970;9.068;2022-08-14T08:35:26;30.00;92.70
4874;DHT22;2451;49.970;9.068;2022-08-14T08:38:01;30.10;92.90
4874;DHT22;2451;49.970;9.068;2022-08-14T08:40:54;30.10;92.30
4874;DHT22;2451;49.970;9.068;2022-08-14T08:43:25;30.20;92.00
4874;DHT22;2451;49.970;9.068;2022-08-14T08:46:28;30.20;91.60
4874;DHT22;2451;49.970;9.068;2022-08-14T08:51:28;30.50;91.00
4874;DHT22;2451;49.970;9.068;2022-08-14T08:54:09;30.80;91.10
4874;DHT22;2451;49.970;9.068;2022-08-14T08:56:43;31.00;90.10
4874;DHT22;2451;49.970;9.068;2022-08-14T08:59:22;31.40;86.30
4874;DHT22;2451;49.970;9.068;2022-08-14T09:01:49;31.20;82.30
4874;DHT22;2451;49.970;9.068;2022-08-14T09:04:16;30.90;82.30
4874;DHT22;2451;49.970;9.068;2022-08-14T09:06:45;30.70;81.60
4874;DHT22;2451;49.970;9.068;2022-08-14T09:09:21;30.70;82.60
4874;DHT22;2451;49.970;9.068;2022-08-14T09:11:48;30.90;82.10
4874;DHT22;2451;49.970;9.068;2022-08-14T09:14:13;30.80;80.20
4874;DHT22;2451;49.970;9.068;2022-08-14T09:16:39;30.70;80.10
4874;DHT22;2451;49.970;9.068;2022-08-14T09:19:05;30.70;80.00
4874;DHT22;2451;49.970;9.068;2022-08-14T09:21:32;30.90;78.70
4874;DHT22;2451;49.970;9.068;2022-08-14T09:23:59;30.90;78.00
4874;DHT22;2451;49.970;9.068;2022-08-14T09:26:25;31.10;76.30
4874;DHT22;2451;49.970;9.068;2022-08-14T09:28:51;31.10;76.40
4874;DHT22;2451;49.970;9.068;2022-08-14T09:31:17;31.00;75.70
4874;DHT22;2451;49.970;9.068;2022-08-14T09:37:05;31.20;72.80
4874;DHT22;2451;49.970;9.068;2022-08-14T09:42:34;31.30;72.40
4874;DHT22;2451;49.970;9.068;2022-08-14T09:50:29;31.50;68.60
4874;DHT22;2451;49.970;9.068;2022-08-14T09:53:04;31.80;65.70
4874;DHT22;2451;49.970;9.068;2022-08-14T09:55:32;32.10;64.50
4874;DHT22;2451;49.970;9.068;2022-08-14T09:58:15;31.90;63.90
4874;DHT22;2451;49.970;9.068;2022-08-14T10:00:49;32.10;63.30
4874;DHT22;2451;49.970;9.068;2022-08-14T10:03:26;31.90;61.40
4874;DHT22;2451;49.970;9.068;2022-08-14T10:06:07;32.10;61.60
4874;DHT22;2451;49.970;9.068;2022-08-14T10:11:22;32.10;61.60
4874;DHT22;2451;49.970;9.068;2022-08-14T10:13:50;32.30;61.60
4874;DHT22;2451;49.970;9.068;2022-08-14T10:16:19;32.50;61.60
4874;DHT22;2451;49.970;9.068;2022-08-14T10:18:48;33.00;60.00
4874;DHT22;2451;49.970;9.068;2022-08-14T10:21:16;33.20;59.70
4874;DHT22;2451;49.970;9.068;2022-08-14T10:23:46;32.80;56.80
4874;DHT22;2451;49.970;9.068;2022-08-14T10:26:16;32.70;57.30
4874;DHT22;2451;49.970;9.068;2022-08-14T10:28:45;33.00;57.60
4874;DHT22;2451;49.970;9.068;2022-08-14T10:31:26;33.00;56.80
4874;DHT22;2451;49.970;9.068;2022-08-14T10:36:33;33.30;56.10
4874;DHT22;2451;49.970;9.068;2022-08-14T10:39:03;33.40;55.10
4874;DHT22;2451;49.970;9.068;2022-08-14T10:41:37;33.30;52.60
4874;DHT22;2451;49.970;9.068;2022-08-14T10:44:12;33.40;53.60
4874;DHT22;2451;49.970;9.068;2022-08-14T10:46:41;33.60;52.60
4874;DHT22;2451;49.970;9.068;2022-08-14T10:49:19;33.70;52.10
4874;DHT22;2451;49.970;9.068;2022-08-14T10:52:00;33.70;52.70
4874;DHT22;2451;49.970;9.068;2022-08-14T10:54:33;33.70;53.50
4874;DHT22;2451;49.970;9.068;2022-08-14T10:57:23;34.00;53.30
4874;DHT22;2451;49.970;9.068;2022-08-14T10:59:55;34.30;52.70
4874;DHT22;2451;49.970;9.068;2022-08-14T11:05:04;34.50;50.70
4874;DHT22;2451;49.970;9.068;2022-08-14T11:07:31;34.40;50.40
4874;DHT22;2451;49.970;9.068;2022-08-14T11:09:59;34.30;50.70
4874;DHT22;2451;49.970;9.068;2022-08-14T11:12:27;34.30;50.90
4874;DHT22;2451;49.970;9.068;2022-08-14T11:15:03;34.30;50.40
4874;DHT22;2451;49.970;9.068;2022-08-14T11:17:32;34.10;50.40
4874;DHT22;2451;49.970;9.068;2022-08-14T11:20:02;34.30;49.90
4874;DHT22;2451;49.970;9.068;2022-08-14T11:22:30;34.40;49.80
4874;DHT22;2451;49.970;9.068;2022-08-14T11:25:00;34.70;50.40
4874;DHT22;2451;49.970;9.068;2022-08-14T11:27:28;35.20;49.10
4874;DHT22;2451;49.970;9.068;2022-08-14T11:30:00;35.40;47.80
4874;DHT22;2451;49.970;9.068;2022-08-14T11:32:28;35.50;48.10
4874;DHT22;2451;49.970;9.068;2022-08-14T11:35:01;35.30;46.80
4874;DHT22;2451;49.970;9.068;2022-08-14T11:37:28;35.00;47.00
4874;DHT22;2451;49.970;9.068;2022-08-14T11:39:55;35.30;47.60
4874;DHT22;2451;49.970;9.068;2022-08-14T11:42:22;35.00;46.60
4874;DHT22;2451;49.970;9.068;2022-08-14T11:44:49;35.10;47.00
4874;DHT22;2451;49.970;9.068;2022-08-14T11:47:15;35.50;48.10
4874;DHT22;2451;49.970;9.068;2022-08-14T11:49:45;35.90;47.30
4874;DHT22;2451;49.970;9.068;2022-08-14T11:52:12;36.40;47.70
4874;DHT22;2451;49.970;9.068;2022-08-14T11:54:38;36.60;46.10
4874;DHT22;2451;49.970;9.068;2022-08-14T11:57:04;36.50;45.60
4874;DHT22;2451;49.970;9.068;2022-08-14T11:59:30;36.20;45.90
4874;DHT22;2451;49.970;9.068;2022-08-14T12:02:16;36.30;45.80
4874;DHT22;2451;49.970;9.068;2022-08-14T12:04:49;36.10;46.00
4874;DHT22;2451;49.970;9.068;2022-08-14T12:07:15;35.90;46.40
4874;DHT22;2451;49.970;9.068;2022-08-14T12:09:41;36.00;46.20
4874;DHT22;2451;49.970;9.068;2022-08-14T12:12:16;35.90;46.10
4874;DHT22;2451;49.970;9.068;2022-08-14T12:14:55;36.20;46.10
4874;DHT22;2451;49.970;9.068;2022-08-14T12:17:33;36.30;45.20
4874;DHT22;2451;49.970;9.068;2022-08-14T12:20:07;35.80;45.20
4874;DHT22;2451;49.970;9.068;2022-08-14T12:22:39;35.60;45.10
4874;DHT22;2451;49.970;9.068;2022-08-14T12:25:07;35.70;45.60
4874;DHT22;2451;49.970;9.068;2022-08-14T12:27:44;35.70;45.10
4874;DHT22;2451;49.970;9.068;2022-08-14T12:32:54;36.30;45.00
4874;DHT22;2451;49.970;9.068;2022-08-14T12:35:21;36.30;45.80
4874;DHT22;2451;49.970;9.068;2022-08-14T12:37:49;36.40;45.40
4874;DHT22;2451;49.970;9.068;2022-08-14T12:40:16;36.70;45.40
4874;DHT22;2451;49.970;9.068;2022-08-14T12:42:42;36.90;45.10
4874;DHT22;2451;49.970;9.068;2022-08-14T12:45:09;36.90;44.90
4874;DHT22;2451;49.970;9.068;2022-08-14T12:47:38;37.10;44.10
4874;DHT22;2451;49.970;9.068;2022-08-14T12:50:04;36.80;43.80
4874;DHT22;2451;49.970;9.068;2022-08-14T12:52:33;36.50;43.90
4874;DHT22;2451;49.970;9.068;2022-08-14T12:55:01;36.10;44.50
4874;DHT22;2451;49.970;9.068;2022-08-14T12:57:34;36.10;44.10
4874;DHT22;2451;49.970;9.068;2022-08-14T13:02:38;36.40;44.90
4874;DHT22;2451;49.970;9.068;2022-08-14T13:05:06;36.30;44.80
4874;DHT22;2451;49.970;9.068;2022-08-14T13:07:34;36.50;45.10
4874;DHT22;2451;49.970;9.068;2022-08-14T13:10:00;36.60;44.70
4874;DHT22;2451;49.970;9.068;2022-08-14T13:12:26;36.80;43.90
4874;DHT22;2451;49.970;9.068;2022-08-14T13:14:56;36.90;44.30
4874;DHT22;2451;49.970;9.068;2022-08-14T13:17:23;37.20;44.10
4874;DHT22;2451;49.970;9.068;2022-08-14T13:19:51;37.10;43.80
4874;DHT22;2451;49.970;9.068;2022-08-14T13:22:24;36.80;42.70
4874;DHT22;2451;49.970;9.068;2022-08-14T13:24:53;36.40;43.00
4874;DHT22;2451;49.970;9.068;2022-08-14T13:27:21;36.50;43.50
4874;DHT22;2451;49.970;9.068;2022-08-14T13:29:50;36.50;42.80
4874;DHT22;2451;49.970;9.068;2022-08-14T13:32:17;36.70;43.00
4874;DHT22;2451;49.970;9.068;2022-08-14T13:34:46;37.10;43.00
4874;DHT22;2451;49.970;9.068;2022-08-14T13:37:16;37.20;41.60
4874;DHT22;2451;49.970;9.068;2022-08-14T13:39:48;36.60;41.80
4874;DHT22;2451;49.970;9.068;2022-08-14T13:42:16;36.40;41.80
4874;DHT22;2451;49.970;9.068;2022-08-14T13:44:43;36.10;42.00
4874;DHT22;2451;49.970;9.068;2022-08-14T13:47:10;36.00;42.30
4874;DHT22;2451;49.970;9.068;2022-08-14T13:49:36;36.00;42.10
4874;DHT22;2451;49.970;9.068;2022-08-14T13:52:03;35.90;42.30
4874;DHT22;2451;49.970;9.068;2022-08-14T13:54:30;36.10;42.30
4874;DHT22;2451;49.970;9.068;2022-08-14T13:57:00;36.00;42.60
4874;DHT22;2451;49.970;9.068;2022-08-14T13:59:28;35.70;42.50
4874;DHT22;2451;49.970;9.068;2022-08-14T14:01:55;35.60;42.70
4874;DHT22;2451;49.970;9.068;2022-08-14T14:04:27;35.70;42.50
4874;DHT22;2451;49.970;9.068;2022-08-14T14:06:55;35.90;42.80
4874;DHT22;2451;49.970;9.068;2022-08-14T14:09:26;36.00;42.30
4874;DHT22;2451;49.970;9.068;2022-08-14T14:11:53;36.30;42.50
4874;DHT22;2451;49.970;9.068;2022-08-14T14:14:22;36.00;42.30
4874;DHT22;2451;49.970;9.068;2022-08-14T14:16:48;35.90;42.30
4874;DHT22;2451;49.970;9.068;2022-08-14T14:19:17;35.90;41.40
4874;DHT22;2451;49.970;9.068;2022-08-14T14:21:44;35.50;40.50
4874;DHT22;2451;49.970;9.068;2022-08-14T14:24:09;35.60;41.10
4874;DHT22;2451;49.970;9.068;2022-08-14T14:26:35;35.90;41.80
4874;DHT22;2451;49.970;9.068;2022-08-14T14:29:02;35.60;41.40
4874;DHT22;2451;49.970;9.068;2022-08-14T14:31:30;34.80;42.30
4874;DHT22;2451;49.970;9.068;2022-08-14T14:33:58;34.30;43.10
4874;DHT22;2451;49.970;9.068;2022-08-14T14:36:27;33.80;43.50
4874;DHT22;2451;49.970;9.068;2022-08-14T14:38:53;33.80;44.20
4874;DHT22;2451;49.970;9.068;2022-08-14T14:41:22;34.20;44.10
4874;DHT22;2451;49.970;9.068;2022-08-14T14:43:50;34.30;43.60
4874;DHT22;2451;49.970;9.068;2022-08-14T14:46:17;34.10;43.40
4874;DHT22;2451;49.970;9.068;2022-08-14T14:48:43;34.20;43.10
4874;DHT22;2451;49.970;9.068;2022-08-14T14:51:11;34.00;43.20
4874;DHT22;2451;49.970;9.068;2022-08-14T14:53:41;33.60;42.90
4874;DHT22;2451;49.970;9.068;2022-08-14T14:56:08;33.20;43.80
4874;DHT22;2451;49.970;9.068;2022-08-14T14:58:35;33.10;44.10
4874;DHT22;2451;49.970;9.068;2022-08-14T15:01:03;33.00;44.00
4874;DHT22;2451;49.970;9.068;2022-08-14T15:03:29;33.30;44.50
4874;DHT22;2451;49.970;9.068;2022-08-14T15:05:54;33.60;44.00
4874;DHT22;2451;49.970;9.068;2022-08-14T15:08:20;34.00;43.80
4874;DHT22;2451;49.970;9.068;2022-08-14T15:10:46;34.30;43.40
4874;DHT22;2451;49.970;9.068;2022-08-14T15:13:11;34.50;43.60
4874;DHT22;2451;49.970;9.068;2022-08-14T15:15:37;34.50;43.40
4874;DHT22;2451;49.970;9.068;2022-08-14T15:18:04;34.40;42.90
4874;DHT22;2451;49.970;9.068;2022-08-14T15:20:31;34.30;43.30
4874;DHT22;2451;49.970;9.068;2022-08-14T15:22:58;34.30;43.30
4874;DHT22;2451;49.970;9.068;2022-08-14T15:25:27;34.30;42.20
4874;DHT22;2451;49.970;9.068;2022-08-14T15:27:59;34.40;42.20
4874;DHT22;2451;49.970;9.068;2022-08-14T15:30:25;34.50;42.10
4874;DHT22;2451;49.970;9.068;2022-08-14T15:32:53;34.50;41.80
4874;DHT22;2451;49.970;9.068;2022-08-14T15:35:19;34.50;41.60
4874;DHT22;2451;49.970;9.068;2022-08-14T15:37:47;34.60;41.80
4874;DHT22;2451;49.970;9.068;2022-08-14T15:40:13;34.60;41.80
4874;DHT22;2451;49.970;9.068;2022-08-14T15:42:39;34.60;42.20
4874;DHT22;2451;49.970;9.068;2022-08-14T15:45:06;34.60;42.10
4874;DHT22;2451;49.970;9.068;2022-08-14T15:47:35;34.70;42.30
4874;DHT22;2451;49.970;9.068;2022-08-14T15:50:04;34.60;41.50
4874;DHT22;2451;49.970;9.068;2022-08-14T15:52:34;34.40;42.00
4874;DHT22;2451;49.970;9.068;2022-08-14T15:55:02;34.20;41.80
4874;DHT22;2451;49.970;9.068;2022-08-14T15:57:28;34.10;42.00
4874;DHT22;2451;49.970;9.068;2022-08-14T15:59:54;34.10;42.10
4874;DHT22;2451;49.970;9.068;2022-08-14T16:02:38;34.10;42.80
4874;DHT22;2451;49.970;9.068;2022-08-14T16:05:03;34.10;42.40
4874;DHT22;2451;49.970;9.068;2022-08-14T16:07:30;34.00;42.10
4874;DHT22;2451;49.970;9.068;2022-08-14T16:09:55;33.80;42.00
4874;DHT22;2451;49.970;9.068;2022-08-14T16:12:21;33.60;42.30
4874;DHT22;2451;49.970;9.068;2022-08-14T16:14:47;33.50;42.70
4874;DHT22;2451;49.970;9.068;2022-08-14T16:17:12;33.40;42.40
4874;DHT22;2451;49.970;9.068;2022-08-14T16:19:38;33.40;42.60
4874;DHT22;2451;49.970;9.068;2022-08-14T16:22:07;33.30;42.60
4874;DHT22;2451;49.970;9.068;2022-08-14T16:24:40;33.20;42.10
4874;DHT22;2451;49.970;9.068;2022-08-14T16:27:07;33.20;42.60
4874;DHT22;2451;49.970;9.068;2022-08-14T16:29:38;33.00;43.20
4874;DHT22;2451;49.970;9.068;2022-08-14T16:32:06;32.80;43.40
4874;DHT22;2451;49.970;9.068;2022-08-14T16:34:37;32.80;43.50
4874;DHT22;2451;49.970;9.068;2022-08-14T16:37:09;32.80;43.80
4874;DHT22;2451;49.970;9.068;2022-08-14T16:39:38;32.80;43.50
4874;DHT22;2451;49.970;9.068;2022-08-14T16:42:06;32.80;44.20